Winter, Wisconsin
Current Conditions -  °F | °C
As of 11:35 AM on Friday 31 Oct 2014 (Local Time) from KRCX Reporting Station
Overcast Overcast  
Wind Chill: 25°   Ceiling: 3100
Heat Index: 35°   Visibility: 10mi
Dew Point: 24°   Wind: 16mph
Humidity: 64%   Direction: 360°N
Pressure: 30.49"   Gusts: 20mph
Location:  45.82°N, 91.01°W
Report Text: KRCX 311635Z AUTO 36014G17KT 10SM OVC031 02/M05 A3049 RMK AO2 T00151046
Loading
Personal Weather Stations






























Interactive Weather Map
Tropical Storm Tracking
New forecast layout! Learn more

10-Day Weather Forecast

Advertisements
Track Severe Weather on mobile